sensor_id;sensor_type;location;lat;lon;timestamp;pressure;altitude;pressure_sealevel;temperature;humidity
82949;BME280;72736;50.236;18.876;2023-09-19T00:03:02;98061.24;;;19.21;66.20
82949;BME280;72736;50.236;18.876;2023-09-19T00:08:08;98055.86;;;19.19;65.88
82949;BME280;72736;50.236;18.876;2023-09-19T00:13:14;98051.34;;;19.16;65.50
82949;BME280;72736;50.236;18.876;2023-09-19T00:18:21;98046.52;;;19.15;65.79
82949;BME280;72736;50.236;18.876;2023-09-19T00:23:28;98046.20;;;19.14;65.84
82949;BME280;72736;50.236;18.876;2023-09-19T00:28:33;98044.33;;;19.13;65.88
82949;BME280;72736;50.236;18.876;2023-09-19T00:33:39;98039.35;;;19.11;65.79
82949;BME280;72736;50.236;18.876;2023-09-19T00:38:45;98033.98;;;19.10;65.74
82949;BME280;72736;50.236;18.876;2023-09-19T00:43:51;98031.02;;;19.09;65.25
82949;BME280;72736;50.236;18.876;2023-09-19T00:48:57;98025.21;;;19.08;65.65
82949;BME280;72736;50.236;18.876;2023-09-19T00:54:03;98019.08;;;19.07;65.75
82949;BME280;72736;50.236;18.876;2023-09-19T00:59:09;98017.62;;;19.08;65.38
82949;BME280;72736;50.236;18.876;2023-09-19T01:04:16;98011.73;;;19.09;66.09
82949;BME280;72736;50.236;18.876;2023-09-19T01:09:22;98011.10;;;19.08;66.69
82949;BME280;72736;50.236;18.876;2023-09-19T01:14:41;98001.46;;;19.06;66.23
82949;BME280;72736;50.236;18.876;2023-09-19T01:20:06;97995.54;;;19.02;65.97
82949;BME280;72736;50.236;18.876;2023-09-19T01:25:40;97987.86;;;18.99;65.96
82949;BME280;72736;50.236;18.876;2023-09-19T01:30:55;97981.88;;;18.97;66.19
82949;BME280;72736;50.236;18.876;2023-09-19T01:36:03;97978.13;;;18.97;66.84
82949;BME280;72736;50.236;18.876;2023-09-19T01:41:12;97974.20;;;18.97;67.49
82949;BME280;72736;50.236;18.876;2023-09-19T01:46:28;97973.91;;;18.98;67.84
82949;BME280;72736;50.236;18.876;2023-09-19T01:51:44;97973.04;;;18.96;67.56
82949;BME280;72736;50.236;18.876;2023-09-19T01:56:53;97969.42;;;18.95;67.70
82949;BME280;72736;50.236;18.876;2023-09-19T02:02:04;97970.66;;;18.94;68.27
82949;BME280;72736;50.236;18.876;2023-09-19T02:07:11;97976.96;;;18.93;68.14
82949;BME280;72736;50.236;18.876;2023-09-19T02:12:19;97974.77;;;18.93;67.29
82949;BME280;72736;50.236;18.876;2023-09-19T02:17:25;97978.52;;;18.92;67.80
82949;BME280;72736;50.236;18.876;2023-09-19T02:22:31;97977.30;;;18.93;67.92
82949;BME280;72736;50.236;18.876;2023-09-19T02:27:37;97974.59;;;18.93;67.92
82949;BME280;72736;50.236;18.876;2023-09-19T02:32:44;97975.64;;;18.92;67.91
82949;BME280;72736;50.236;18.876;2023-09-19T02:37:50;97968.88;;;18.91;67.68
82949;BME280;72736;50.236;18.876;2023-09-19T02:42:57;97962.77;;;18.88;67.66
82949;BME280;72736;50.236;18.876;2023-09-19T02:48:04;97963.20;;;18.88;68.06
82949;BME280;72736;50.236;18.876;2023-09-19T02:53:12;97965.59;;;18.88;68.11
82949;BME280;72736;50.236;18.876;2023-09-19T02:58:18;97967.57;;;18.87;68.45
82949;BME280;72736;50.236;18.876;2023-09-19T03:03:24;97965.48;;;18.85;68.44
82949;BME280;72736;50.236;18.876;2023-09-19T03:08:33;97966.28;;;18.85;67.73
82949;BME280;72736;50.236;18.876;2023-09-19T03:13:40;97969.19;;;18.83;68.03
82949;BME280;72736;50.236;18.876;2023-09-19T03:18:47;97965.05;;;18.82;67.77
82949;BME280;72736;50.236;18.876;2023-09-19T03:23:53;97964.02;;;18.82;68.27
82949;BME280;72736;50.236;18.876;2023-09-19T03:28:58;97966.86;;;18.80;68.65
82949;BME280;72736;50.236;18.876;2023-09-19T03:34:04;97959.23;;;18.78;68.37
82949;BME280;72736;50.236;18.876;2023-09-19T03:39:10;97955.02;;;18.78;68.88
82949;BME280;72736;50.236;18.876;2023-09-19T03:44:16;97953.55;;;18.77;68.95
82949;BME280;72736;50.236;18.876;2023-09-19T03:49:22;97951.42;;;18.74;68.88
82949;BME280;72736;50.236;18.876;2023-09-19T03:54:27;97946.95;;;18.66;69.37
82949;BME280;72736;50.236;18.876;2023-09-19T03:59:33;97947.94;;;18.61;70.35
82949;BME280;72736;50.236;18.876;2023-09-19T04:04:39;97948.56;;;18.59;71.05
82949;BME280;72736;50.236;18.876;2023-09-19T04:09:45;97947.11;;;18.58;70.81
82949;BME280;72736;50.236;18.876;2023-09-19T04:14:53;97941.88;;;18.56;70.94
82949;BME280;72736;50.236;18.876;2023-09-19T04:19:59;97940.34;;;18.54;71.85
82949;BME280;72736;50.236;18.876;2023-09-19T04:25:05;97940.30;;;18.51;72.10
82949;BME280;72736;50.236;18.876;2023-09-19T04:30:13;97940.66;;;18.49;72.29
82949;BME280;72736;50.236;18.876;2023-09-19T04:35:19;97943.76;;;18.48;72.78
82949;BME280;72736;50.236;18.876;2023-09-19T04:40:25;97940.98;;;18.48;73.06
82949;BME280;72736;50.236;18.876;2023-09-19T04:45:31;97944.79;;;18.48;73.26
82949;BME280;72736;50.236;18.876;2023-09-19T04:50:37;97942.02;;;18.48;73.85
82949;BME280;72736;50.236;18.876;2023-09-19T04:55:43;97937.84;;;18.49;74.16
82949;BME280;72736;50.236;18.876;2023-09-19T05:00:49;97948.86;;;18.49;74.32
82949;BME280;72736;50.236;18.876;2023-09-19T05:05:55;97959.05;;;18.50;74.67
82949;BME280;72736;50.236;18.876;2023-09-19T05:11:03;97963.48;;;18.50;74.71
82949;BME280;72736;50.236;18.876;2023-09-19T05:16:08;97972.57;;;18.53;75.01
82949;BME280;72736;50.236;18.876;2023-09-19T05:21:15;97984.86;;;18.54;74.79
82949;BME280;72736;50.236;18.876;2023-09-19T05:26:21;97989.20;;;18.58;74.88
82949;BME280;72736;50.236;18.876;2023-09-19T05:31:27;97995.52;;;18.61;74.60
82949;BME280;72736;50.236;18.876;2023-09-19T05:36:33;98004.71;;;18.62;74.42
82949;BME280;72736;50.236;18.876;2023-09-19T05:41:39;98005.14;;;18.64;74.32
82949;BME280;72736;50.236;18.876;2023-09-19T05:46:46;98010.40;;;18.64;74.30
82949;BME280;72736;50.236;18.876;2023-09-19T05:51:52;98005.11;;;18.66;74.38
82949;BME280;72736;50.236;18.876;2023-09-19T05:56:59;98012.38;;;18.66;74.56
82949;BME280;72736;50.236;18.876;2023-09-19T06:02:06;98020.26;;;18.66;74.23
82949;BME280;72736;50.236;18.876;2023-09-19T06:07:14;98027.11;;;18.64;74.11
82949;BME280;72736;50.236;18.876;2023-09-19T06:12:21;98034.88;;;18.62;74.43
82949;BME280;72736;50.236;18.876;2023-09-19T06:17:27;98034.63;;;18.62;74.57
82949;BME280;72736;50.236;18.876;2023-09-19T06:22:33;98037.83;;;18.61;74.79
82949;BME280;72736;50.236;18.876;2023-09-19T06:27:39;98039.42;;;18.59;74.58
82949;BME280;72736;50.236;18.876;2023-09-19T06:32:46;98047.81;;;18.61;75.02
82949;BME280;72736;50.236;18.876;2023-09-19T06:37:52;98053.81;;;18.63;74.85
82949;BME280;72736;50.236;18.876;2023-09-19T06:42:58;98058.87;;;18.68;75.52
82949;BME280;72736;50.236;18.876;2023-09-19T06:48:07;98068.76;;;18.72;75.44
82949;BME280;72736;50.236;18.876;2023-09-19T06:53:15;98069.36;;;18.76;75.25
82949;BME280;72736;50.236;18.876;2023-09-19T06:58:20;98080.50;;;18.80;75.42
82949;BME280;72736;50.236;18.876;2023-09-19T07:03:26;98087.98;;;18.82;75.30
82949;BME280;72736;50.236;18.876;2023-09-19T07:08:33;98101.48;;;18.85;75.22
82949;BME280;72736;50.236;18.876;2023-09-19T07:13:39;98113.24;;;18.86;75.28
82949;BME280;72736;50.236;18.876;2023-09-19T07:18:45;98125.45;;;18.86;75.09
82949;BME280;72736;50.236;18.876;2023-09-19T07:23:51;98133.33;;;18.85;74.83
82949;BME280;72736;50.236;18.876;2023-09-19T07:28:57;98140.64;;;18.87;74.90
82949;BME280;72736;50.236;18.876;2023-09-19T07:34:03;98148.48;;;18.90;74.93
82949;BME280;72736;50.236;18.876;2023-09-19T07:39:10;98157.98;;;18.90;74.68
82949;BME280;72736;50.236;18.876;2023-09-19T07:44:26;98174.45;;;18.89;74.59
82949;BME280;72736;50.236;18.876;2023-09-19T07:49:32;98183.23;;;18.89;74.21
82949;BME280;72736;50.236;18.876;2023-09-19T07:54:38;98197.33;;;18.90;74.38
82949;BME280;72736;50.236;18.876;2023-09-19T07:59:48;98208.08;;;18.90;74.25
82949;BME280;72736;50.236;18.876;2023-09-19T08:04:54;98217.20;;;18.90;74.07
82949;BME280;72736;50.236;18.876;2023-09-19T08:10:00;98227.31;;;18.89;74.10
82949;BME280;72736;50.236;18.876;2023-09-19T08:15:07;98233.79;;;18.86;74.04
82949;BME280;72736;50.236;18.876;2023-09-19T08:20:14;98241.02;;;18.85;74.44
82949;BME280;72736;50.236;18.876;2023-09-19T08:25:22;98246.73;;;18.84;74.81
82949;BME280;72736;50.236;18.876;2023-09-19T08:30:29;98255.02;;;18.82;75.03
82949;BME280;72736;50.236;18.876;2023-09-19T08:35:36;98263.59;;;18.82;75.13
82949;BME280;72736;50.236;18.876;2023-09-19T08:40:44;98264.41;;;18.81;74.91
82949;BME280;72736;50.236;18.876;2023-09-19T08:45:50;98263.48;;;18.82;75.38
82949;BME280;72736;50.236;18.876;2023-09-19T08:51:02;98267.61;;;18.84;75.51
82949;BME280;72736;50.236;18.876;2023-09-19T08:56:12;98267.94;;;18.86;75.69
82949;BME280;72736;50.236;18.876;2023-09-19T09:01:21;98270.46;;;18.88;75.70
82949;BME280;72736;50.236;18.876;2023-09-19T09:06:30;98275.23;;;18.88;75.84
82949;BME280;72736;50.236;18.876;2023-09-19T09:11:37;98276.25;;;18.91;75.99
82949;BME280;72736;50.236;18.876;2023-09-19T09:16:44;98276.55;;;18.94;75.75
82949;BME280;72736;50.236;18.876;2023-09-19T09:21:50;98271.52;;;18.99;75.99
82949;BME280;72736;50.236;18.876;2023-09-19T09:26:56;98277.79;;;19.08;75.76
82949;BME280;72736;50.236;18.876;2023-09-19T09:32:18;98279.80;;;19.14;75.19
82949;BME280;72736;50.236;18.876;2023-09-19T09:37:25;98286.21;;;19.19;75.32
82949;BME280;72736;50.236;18.876;2023-09-19T09:42:36;98287.21;;;19.23;75.09
82949;BME280;72736;50.236;18.876;2023-09-19T09:47:45;98289.82;;;19.29;74.92
82949;BME280;72736;50.236;18.876;2023-09-19T09:53:00;98296.36;;;19.33;74.77
82949;BME280;72736;50.236;18.876;2023-09-19T09:58:20;98294.77;;;19.33;74.16
82949;BME280;72736;50.236;18.876;2023-09-19T10:03:36;98295.68;;;19.35;74.01
82949;BME280;72736;50.236;18.876;2023-09-19T10:09:00;98298.02;;;19.35;73.67
82949;BME280;72736;50.236;18.876;2023-09-19T10:14:15;98305.04;;;19.35;73.99
82949;BME280;72736;50.236;18.876;2023-09-19T10:19:36;98309.27;;;19.34;74.14
82949;BME280;72736;50.236;18.876;2023-09-19T10:24:42;98316.42;;;19.35;74.25
82949;BME280;72736;50.236;18.876;2023-09-19T10:30:07;98320.47;;;19.34;74.60
82949;BME280;72736;50.236;18.876;2023-09-19T10:35:15;98325.69;;;19.33;75.04
82949;BME280;72736;50.236;18.876;2023-09-19T10:40:22;98330.13;;;19.33;75.57
82949;BME280;72736;50.236;18.876;2023-09-19T10:45:35;98335.11;;;19.31;75.93
82949;BME280;72736;50.236;18.876;2023-09-19T10:50:48;98339.91;;;19.27;75.75
82949;BME280;72736;50.236;18.876;2023-09-19T10:55:58;98351.68;;;19.22;76.27
82949;BME280;72736;50.236;18.876;2023-09-19T11:01:05;98361.23;;;19.17;76.28
82949;BME280;72736;50.236;18.876;2023-09-19T11:06:17;98361.27;;;19.13;76.20
82949;BME280;72736;50.236;18.876;2023-09-19T11:11:47;98364.73;;;19.08;76.06
82949;BME280;72736;50.236;18.876;2023-09-19T11:17:31;98374.20;;;19.04;75.97
82949;BME280;72736;50.236;18.876;2023-09-19T11:28:36;98377.31;;;19.00;76.23
82949;BME280;72736;50.236;18.876;2023-09-19T11:33:44;98381.50;;;18.99;76.24
82949;BME280;72736;50.236;18.876;2023-09-19T11:39:01;98376.19;;;18.98;76.26
82949;BME280;72736;50.236;18.876;2023-09-19T11:44:34;98378.05;;;19.01;76.65
82949;BME280;72736;50.236;18.876;2023-09-19T11:49:45;98382.33;;;19.05;76.54
82949;BME280;72736;50.236;18.876;2023-09-19T11:54:57;98381.15;;;19.10;76.71
82949;BME280;72736;50.236;18.876;2023-09-19T12:00:03;98381.23;;;19.16;76.80
82949;BME280;72736;50.236;18.876;2023-09-19T12:05:13;98379.85;;;19.24;76.81
82949;BME280;72736;50.236;18.876;2023-09-19T12:10:19;98379.73;;;19.33;76.72
82949;BME280;72736;50.236;18.876;2023-09-19T12:15:29;98379.44;;;19.43;76.45
82949;BME280;72736;50.236;18.876;2023-09-19T12:20:46;98380.30;;;19.50;76.02
82949;BME280;72736;50.236;18.876;2023-09-19T12:25:55;98383.23;;;19.55;75.88
82949;BME280;72736;50.236;18.876;2023-09-19T12:31:08;98386.52;;;19.58;75.88
82949;BME280;72736;50.236;18.876;2023-09-19T12:36:23;98387.88;;;19.58;75.41
82949;BME280;72736;50.236;18.876;2023-09-19T12:41:34;98384.09;;;19.63;75.18
82949;BME280;72736;50.236;18.876;2023-09-19T12:46:40;98386.20;;;19.69;75.60
82949;BME280;72736;50.236;18.876;2023-09-19T12:51:47;98386.09;;;19.78;75.41
82949;BME280;72736;50.236;18.876;2023-09-19T12:56:54;98383.91;;;19.90;74.97
82949;BME280;72736;50.236;18.876;2023-09-19T13:02:06;98387.56;;;20.04;74.63
82949;BME280;72736;50.236;18.876;2023-09-19T13:07:41;98383.52;;;20.24;74.36
82949;BME280;72736;50.236;18.876;2023-09-19T13:12:50;98375.46;;;20.39;73.57
82949;BME280;72736;50.236;18.876;2023-09-19T13:17:56;98377.77;;;20.49;73.37
82949;BME280;72736;50.236;18.876;2023-09-19T13:23:07;98381.91;;;20.58;73.17
82949;BME280;72736;50.236;18.876;2023-09-19T13:28:31;98383.71;;;20.63;72.00
82949;BME280;72736;50.236;18.876;2023-09-19T13:33:44;98379.73;;;20.65;72.02
82949;BME280;72736;50.236;18.876;2023-09-19T13:38:50;98381.75;;;20.64;71.76
82949;BME280;72736;50.236;18.876;2023-09-19T13:43:57;98383.83;;;20.61;71.30
82949;BME280;72736;50.236;18.876;2023-09-19T13:49:03;98393.48;;;20.55;71.28
82949;BME280;72736;50.236;18.876;2023-09-19T13:54:09;98400.12;;;20.42;71.36
82949;BME280;72736;50.236;18.876;2023-09-19T13:59:17;98400.47;;;20.26;71.84
82949;BME280;72736;50.236;18.876;2023-09-19T14:04:22;98408.35;;;20.14;72.13
82949;BME280;72736;50.236;18.876;2023-09-19T14:09:29;98405.13;;;20.03;72.08
82949;BME280;72736;50.236;18.876;2023-09-19T14:14:34;98396.30;;;19.95;72.27
82949;BME280;72736;50.236;18.876;2023-09-19T14:19:42;98394.63;;;19.93;72.57
82949;BME280;72736;50.236;18.876;2023-09-19T14:24:50;98394.41;;;19.95;72.85
82949;BME280;72736;50.236;18.876;2023-09-19T14:29:56;98394.61;;;20.01;72.17
82949;BME280;72736;50.236;18.876;2023-09-19T14:35:02;98399.98;;;20.08;71.83
82949;BME280;72736;50.236;18.876;2023-09-19T14:40:09;98400.38;;;20.10;71.24
82949;BME280;72736;50.236;18.876;2023-09-19T14:45:15;98407.80;;;20.08;71.07
82949;BME280;72736;50.236;18.876;2023-09-19T14:50:22;98411.44;;;20.03;70.97
82949;BME280;72736;50.236;18.876;2023-09-19T14:55:29;98420.98;;;19.95;70.83
82949;BME280;72736;50.236;18.876;2023-09-19T15:00:39;98419.30;;;19.85;70.56
82949;BME280;72736;50.236;18.876;2023-09-19T15:05:44;98413.33;;;19.84;70.74
82949;BME280;72736;50.236;18.876;2023-09-19T15:10:52;98406.92;;;19.82;70.23
82949;BME280;72736;50.236;18.876;2023-09-19T15:16:01;98393.09;;;19.80;69.72
82949;BME280;72736;50.236;18.876;2023-09-19T15:21:08;98394.11;;;19.75;69.10
82949;BME280;72736;50.236;18.876;2023-09-19T15:26:15;98404.30;;;19.70;69.16
82949;BME280;72736;50.236;18.876;2023-09-19T15:31:25;98406.89;;;19.65;68.85
82949;BME280;72736;50.236;18.876;2023-09-19T15:36:31;98404.76;;;19.59;69.13
82949;BME280;72736;50.236;18.876;2023-09-19T15:41:38;98402.00;;;19.53;69.40
82949;BME280;72736;50.236;18.876;2023-09-19T15:46:45;98405.40;;;19.44;69.97
82949;BME280;72736;50.236;18.876;2023-09-19T15:51:52;98398.28;;;19.36;70.27
82949;BME280;72736;50.236;18.876;2023-09-19T15:56:57;98395.71;;;19.31;70.76
82949;BME280;72736;50.236;18.876;2023-09-19T16:02:04;98395.64;;;19.25;71.04
82949;BME280;72736;50.236;18.876;2023-09-19T16:07:10;98404.73;;;19.23;71.64
82949;BME280;72736;50.236;18.876;2023-09-19T16:12:16;98415.09;;;19.20;71.61
82949;BME280;72736;50.236;18.876;2023-09-19T16:17:25;98414.83;;;19.15;71.84
82949;BME280;72736;50.236;18.876;2023-09-19T16:22:32;98423.08;;;19.09;71.90
82949;BME280;72736;50.236;18.876;2023-09-19T16:27:38;98428.17;;;19.02;72.00
82949;BME280;72736;50.236;18.876;2023-09-19T16:32:44;98433.09;;;18.96;72.01
82949;BME280;72736;50.236;18.876;2023-09-19T16:37:50;98433.59;;;18.88;72.22
82949;BME280;72736;50.236;18.876;2023-09-19T16:42:56;98438.22;;;18.78;72.07
82949;BME280;72736;50.236;18.876;2023-09-19T16:48:02;98447.11;;;18.67;72.25
82949;BME280;72736;50.236;18.876;2023-09-19T16:53:08;98449.82;;;18.56;72.17
82949;BME280;72736;50.236;18.876;2023-09-19T16:58:15;98455.00;;;18.44;72.39
82949;BME280;72736;50.236;18.876;2023-09-19T17:03:21;98457.58;;;18.35;71.90
82949;BME280;72736;50.236;18.876;2023-09-19T17:08:29;98469.73;;;18.38;74.66
82949;BME280;72736;50.236;18.876;2023-09-19T17:13:35;98473.27;;;18.68;73.88
82949;BME280;72736;50.236;18.876;2023-09-19T17:18:42;98478.32;;;18.95;72.94
82949;BME280;72736;50.236;18.876;2023-09-19T17:23:49;98483.25;;;19.09;71.71
82949;BME280;72736;50.236;18.876;2023-09-19T17:28:56;98484.13;;;19.17;71.26
82949;BME280;72736;50.236;18.876;2023-09-19T17:34:02;98490.27;;;19.22;70.63
82949;BME280;72736;50.236;18.876;2023-09-19T17:39:08;98501.34;;;19.26;69.99
82949;BME280;72736;50.236;18.876;2023-09-19T17:44:19;98506.84;;;19.23;69.60
82949;BME280;72736;50.236;18.876;2023-09-19T17:49:24;98504.79;;;19.20;69.25
82949;BME280;72736;50.236;18.876;2023-09-19T17:54:30;98507.31;;;18.94;68.48
82949;BME280;72736;50.236;18.876;2023-09-19T17:59:36;98507.33;;;18.50;69.27
82949;BME280;72736;50.236;18.876;2023-09-19T18:04:42;98509.54;;;18.14;69.92
82949;BME280;72736;50.236;18.876;2023-09-19T18:09:48;98518.53;;;17.89;70.51
82949;BME280;72736;50.236;18.876;2023-09-19T18:14:54;98524.30;;;17.69;70.59
82949;BME280;72736;50.236;18.876;2023-09-19T18:19:59;98527.77;;;17.54;71.20
82949;BME280;72736;50.236;18.876;2023-09-19T18:25:06;98532.08;;;17.40;71.24
82949;BME280;72736;50.236;18.876;2023-09-19T18:30:13;98537.77;;;17.30;71.40
82949;BME280;72736;50.236;18.876;2023-09-19T18:35:20;98543.49;;;17.20;71.54
82949;BME280;72736;50.236;18.876;2023-09-19T18:40:28;98547.98;;;17.04;71.86
82949;BME280;72736;50.236;18.876;2023-09-19T18:45:33;98546.19;;;16.89;72.61
82949;BME280;72736;50.236;18.876;2023-09-19T18:50:43;98546.45;;;16.79;72.43
82949;BME280;72736;50.236;18.876;2023-09-19T18:55:49;98554.15;;;16.72;72.59
82949;BME280;72736;50.236;18.876;2023-09-19T19:01:01;98559.98;;;16.65;72.52
82949;BME280;72736;50.236;18.876;2023-09-19T19:06:08;98562.88;;;16.58;72.35
82949;BME280;72736;50.236;18.876;2023-09-19T19:11:16;98561.71;;;16.52;72.36
82949;BME280;72736;50.236;18.876;2023-09-19T19:16:24;98563.36;;;16.46;72.45
82949;BME280;72736;50.236;18.876;2023-09-19T19:21:33;98568.02;;;16.39;72.30
82949;BME280;72736;50.236;18.876;2023-09-19T19:26:40;98571.50;;;16.34;72.13
82949;BME280;72736;50.236;18.876;2023-09-19T19:31:46;98575.52;;;16.29;72.31
82949;BME280;72736;50.236;18.876;2023-09-19T19:36:53;98576.08;;;16.25;72.56
82949;BME280;72736;50.236;18.876;2023-09-19T19:41:59;98582.86;;;16.21;72.48
82949;BME280;72736;50.236;18.876;2023-09-19T19:47:05;98581.58;;;16.16;72.44
82949;BME280;72736;50.236;18.876;2023-09-19T19:52:12;98580.66;;;16.09;73.04
82949;BME280;72736;50.236;18.876;2023-09-19T19:57:18;98578.68;;;16.06;73.10
82949;BME280;72736;50.236;18.876;2023-09-19T20:02:24;98583.60;;;16.00;73.61
82949;BME280;72736;50.236;18.876;2023-09-19T20:07:30;98588.94;;;15.97;73.33
82949;BME280;72736;50.236;18.876;2023-09-19T20:12:36;98588.58;;;15.94;73.48
82949;BME280;72736;50.236;18.876;2023-09-19T20:17:42;98588.17;;;15.91;73.64
82949;BME280;72736;50.236;18.876;2023-09-19T20:22:48;98593.39;;;15.89;73.87
82949;BME280;72736;50.236;18.876;2023-09-19T20:27:55;98594.85;;;15.89;73.88
82949;BME280;72736;50.236;18.876;2023-09-19T20:33:01;98596.90;;;15.88;73.51
82949;BME280;72736;50.236;18.876;2023-09-19T20:38:07;98595.15;;;15.85;73.26
82949;BME280;72736;50.236;18.876;2023-09-19T20:43:15;98593.91;;;15.81;73.04
82949;BME280;72736;50.236;18.876;2023-09-19T20:48:20;98595.08;;;15.74;73.60
82949;BME280;72736;50.236;18.876;2023-09-19T20:53:28;98594.67;;;15.68;72.98
82949;BME280;72736;50.236;18.876;2023-09-19T20:58:34;98597.46;;;15.59;73.32
82949;BME280;72736;50.236;18.876;2023-09-19T21:03:40;98595.00;;;15.52;73.26
82949;BME280;72736;50.236;18.876;2023-09-19T21:08:48;98599.15;;;15.46;72.66
82949;BME280;72736;50.236;18.876;2023-09-19T21:13:54;98603.92;;;15.39;72.93
82949;BME280;72736;50.236;18.876;2023-09-19T21:18:59;98600.59;;;15.34;73.35
82949;BME280;72736;50.236;18.876;2023-09-19T21:24:09;98601.31;;;15.27;73.46
82949;BME280;72736;50.236;18.876;2023-09-19T21:29:17;98606.23;;;15.19;74.08
82949;BME280;72736;50.236;18.876;2023-09-19T21:34:23;98604.56;;;15.15;73.61
82949;BME280;72736;50.236;18.876;2023-09-19T21:39:27;98606.61;;;15.11;73.34
82949;BME280;72736;50.236;18.876;2023-09-19T21:44:32;98605.70;;;15.07;73.18
82949;BME280;72736;50.236;18.876;2023-09-19T21:49:38;98602.19;;;14.97;73.88
82949;BME280;72736;50.236;18.876;2023-09-19T21:54:44;98604.58;;;14.90;73.98
82949;BME280;72736;50.236;18.876;2023-09-19T21:59:50;98606.42;;;14.87;74.10
82949;BME280;72736;50.236;18.876;2023-09-19T22:04:55;98603.85;;;14.84;73.83
82949;BME280;72736;50.236;18.876;2023-09-19T22:10:03;98605.46;;;14.80;74.03
82949;BME280;72736;50.236;18.876;2023-09-19T22:15:10;98604.67;;;14.77;74.37
82949;BME280;72736;50.236;18.876;2023-09-19T22:20:17;98602.75;;;14.75;74.33
82949;BME280;72736;50.236;18.876;2023-09-19T22:25:30;98609.86;;;14.74;74.55
82949;BME280;72736;50.236;18.876;2023-09-19T22:30:41;98605.36;;;14.73;74.79
82949;BME280;72736;50.236;18.876;2023-09-19T22:35:51;98602.33;;;14.72;75.14
82949;BME280;72736;50.236;18.876;2023-09-19T22:41:08;98604.88;;;14.73;75.34
82949;BME280;72736;50.236;18.876;2023-09-19T22:46:16;98605.10;;;14.73;75.22
82949;BME280;72736;50.236;18.876;2023-09-19T22:51:26;98608.85;;;14.75;75.05
82949;BME280;72736;50.236;18.876;2023-09-19T22:56:41;98611.05;;;14.73;75.03
82949;BME280;72736;50.236;18.876;2023-09-19T23:01:45;98612.23;;;14.69;74.80
82949;BME280;72736;50.236;18.876;2023-09-19T23:06:54;98616.02;;;14.64;74.70
82949;BME280;72736;50.236;18.876;2023-09-19T23:12:06;98619.66;;;14.56;75.11
82949;BME280;72736;50.236;18.876;2023-09-19T23:17:15;98624.02;;;14.52;74.75
82949;BME280;72736;50.236;18.876;2023-09-19T23:22:26;98622.99;;;14.46;74.91
82949;BME280;72736;50.236;18.876;2023-09-19T23:27:33;98624.81;;;14.41;74.90
82949;BME280;72736;50.236;18.876;2023-09-19T23:32:40;98625.79;;;14.38;74.95
82949;BME280;72736;50.236;18.876;2023-09-19T23:37:46;98633.34;;;14.35;74.35
82949;BME280;72736;50.236;18.876;2023-09-19T23:42:55;98637.41;;;14.30;74.42
82949;BME280;72736;50.236;18.876;2023-09-19T23:48:02;98640.54;;;14.24;73.72
82949;BME280;72736;50.236;18.876;2023-09-19T23:53:10;98641.14;;;14.17;73.85
82949;BME280;72736;50.236;18.876;2023-09-19T23:58:16;98647.09;;;14.13;74.20
